KCOE

Coeur D'alene - Pappy Boyington Field Airport

Coeur D'alene, Idaho, USA
METAR KCOE 190856Z AUTO 07006KT 10SM CLR 06/01 A3002 RMK AO2 SLP182 T00560006 53001
Observed Flight Rules
Sep-19 @ 08:56 UTC (8 minutes ago) Visual Flight Rules
Wind Visibility Clouds
70° at 6 knots 10 miles
  • Clear skies
Temperatures Readings
Current 6°C / 43°F
Dewpoint 1°C / 34°F
Humidity 71%
Altimeter 30.02" Hg
Pressure 1018.2 hPa
Elevation 707
METAR KCOE 190856Z AUTO 07006KT 10SM CLR 06/01 A3002 RMK AO2 SLP182 T00560006 53001
Observed Flight Rules
Sep-19 @ 08:56 UTC
(8 minutes ago)
VFR
Wind Visibility
70° at 6 knots 10 miles
Clouds
  • Clear skies
Temperature Dewpoint
6°C / 43°F 1°C / 34°F
Humidity Altimeter Pressure
71% 30.02" Hg 1018.2 hPa